La rose des vents
Donnes mto: Semaine 20/10/08 - 26/10/08 (S 43)
Date Horaire Temp. E. Hum. E. P.atmo. Pluie Vent 1mn Direction Ensoleilleme Ev.Tr. Solaire P. de rose Temp au vent Rafales
20/10/2008 00:00 15,9 C 92 % 1022,8 hPa 0,0 l/m 2,2 km/h (1 Bft) O-NO 0,00 h 0,000 mm 0 W/m 14,6 C 15,9 C 3,1 km/h (1 Bft)
20/10/2008 01:00 15,8 C 93 % 1022,5 hPa 0,0 l/m 0,4 km/h (0 Bft) O-NO 0,00 h 0,025 mm 0 W/m 14,6 C 15,8 C 0,7 km/h (0 Bft)
20/10/2008 02:00 15,6 C 93 % 1022,7 hPa 0,0 l/m 0,0 km/h (0 Bft) N 0,00 h 0,000 mm 0 W/m 14,4 C 15,6 C 0,0 km/h (0 Bft)
20/10/2008 03:00 15,5 C 93 % 1022,8 hPa 0,0 l/m 1,2 km/h (1 Bft) O-NO 0,00 h 0,000 mm 0 W/m 14,4 C 15,5 C 1,9 km/h (1 Bft)
20/10/2008 04:00 15,2 C 93 % 1022,4 hPa 0,2 l/m 0,0 km/h (0 Bft) N 0,00 h 0,000 mm 0 W/m 14,1 C 15,2 C 0,0 km/h (0 Bft)
20/10/2008 05:00 14,9 C 94 % 1022,1 hPa 0,0 l/m 0,2 km/h (0 Bft) O-NO 0,00 h 0,000 mm 0 W/m 13,9 C 14,9 C 0,3 km/h (0 Bft)
20/10/2008 06:00 14,1 C 94 % 1021,9 hPa 0,0 l/m 0,4 km/h (0 Bft) O-NO 0,00 h 0,000 mm 0 W/m 13,2 C 14,1 C 0,6 km/h (0 Bft)
20/10/2008 07:00 13,9 C 94 % 1022,1 hPa 0,0 l/m 2,5 km/h (1 Bft) O-NO 0,00 h 0,000 mm 5 W/m 12,9 C 13,9 C 4,0 km/h (1 Bft)
20/10/2008 08:00 14,0 C 95 % 1022,3 hPa 0,0 l/m 1,8 km/h (1 Bft) O-NO 0,00 h 0,000 mm 23 W/m 13,2 C 14,0 C 3,0 km/h (1 Bft)
20/10/2008 09:00 14,9 C 95 % 1022,7 hPa 0,0 l/m 1,9 km/h (1 Bft) N-NO 0,00 h 0,025 mm 92 W/m 14,0 C 14,9 C 3,5 km/h (1 Bft)
20/10/2008 10:00 16,9 C 88 % 1022,9 hPa 0,0 l/m 1,1 km/h (1 Bft) NE 0,48 h 0,051 mm 253 W/m 14,7 C 16,9 C 2,0 km/h (1 Bft)
20/10/2008 11:00 19,0 C 75 % 1022,9 hPa 0,0 l/m 2,0 km/h (1 Bft) E 0,88 h 0,127 mm 428 W/m 14,5 C 19,0 C 3,7 km/h (1 Bft)
20/10/2008 12:00 20,3 C 73 % 1022,5 hPa 0,0 l/m 5,7 km/h (1 Bft) E-SE 0,57 h 0,254 mm 437 W/m 15,3 C 20,3 C 9,1 km/h (2 Bft)
20/10/2008 13:00 19,2 C 79 % 1022,3 hPa 0,0 l/m 5,0 km/h (1 Bft) E 0,07 h 0,279 mm 200 W/m 15,5 C 19,2 C 8,2 km/h (2 Bft)
20/10/2008 14:00 19,6 C 79 % 1021,5 hPa 0,0 l/m 4,7 km/h (1 Bft) E-NE 0,23 h 0,127 mm 268 W/m 15,7 C 19,6 C 7,2 km/h (2 Bft)
20/10/2008 15:00 19,0 C 80 % 1021,0 hPa 0,0 l/m 5,8 km/h (2 Bft) E 0,00 h 0,178 mm 106 W/m 15,5 C 19,0 C 8,4 km/h (2 Bft)
20/10/2008 16:00 18,3 C 82 % 1020,8 hPa 0,0 l/m 6,7 km/h (2 Bft) E 0,00 h 0,076 mm 85 W/m 15,1 C 18,3 C 9,6 km/h (2 Bft)
20/10/2008 17:00 17,8 C 82 % 1020,5 hPa 0,0 l/m 3,9 km/h (1 Bft) E 0,00 h 0,076 mm 62 W/m 14,7 C 17,8 C 6,3 km/h (2 Bft)
20/10/2008 18:00 17,0 C 84 % 1020,5 hPa 0,0 l/m 1,0 km/h (0 Bft) E 0,02 h 0,051 mm 14 W/m 14,4 C 17,0 C 1,9 km/h (1 Bft)
20/10/2008 19:00 16,8 C 86 % 1020,5 hPa 0,0 l/m 0,5 km/h (0 Bft) E 0,00 h 0,000 mm 0 W/m 14,5 C 16,8 C 0,9 km/h (0 Bft)
20/10/2008 20:00 16,5 C 88 % 1020,3 hPa 0,0 l/m 1,0 km/h (0 Bft) S-SE 0,00 h 0,025 mm 0 W/m 14,4 C 16,5 C 1,9 km/h (1 Bft)
20/10/2008 21:00 16,3 C 89 % 1020,2 hPa 0,0 l/m 1,4 km/h (1 Bft) O-SO 0,00 h 0,025 mm 0 W/m 14,4 C 16,3 C 2,6 km/h (1 Bft)
20/10/2008 22:00 15,9 C 89 % 1020,3 hPa 0,0 l/m 0,5 km/h (0 Bft) O-SO 0,00 h 0,025 mm 0 W/m 14,2 C 15,9 C 0,9 km/h (0 Bft)
20/10/2008 23:00 15,5 C 90 % 1019,9 hPa 0,0 l/m 1,1 km/h (1 Bft) O-SO 0,00 h 0,025 mm 0 W/m 13,9 C 15,5 C 1,7 km/h (1 Bft)
21/10/2008 00:00 15,3 C 90 % 1019,6 hPa 0,0 l/m 2,0 km/h (1 Bft) NO 0,00 h 0,025 mm 0 W/m 13,7 C 15,3 C 3,4 km/h (1 Bft)
21/10/2008 01:00 15,1 C 91 % 1019,4 hPa 0,0 l/m 1,3 km/h (1 Bft) NO 0,00 h 0,025 mm 0 W/m 13,6 C 15,1 C 2,6 km/h (1 Bft)
21/10/2008 02:00 15,1 C 91 % 1019,3 hPa 0,0 l/m 2,0 km/h (1 Bft) NO 0,00 h 0,025 mm 0 W/m 13,7 C 15,1 C 3,2 km/h (1 Bft)
21/10/2008 03:00 15,1 C 92 % 1018,9 hPa 0,0 l/m 1,4 km/h (1 Bft) NO 0,00 h 0,025 mm 0 W/m 13,8 C 15,1 C 2,2 km/h (1 Bft)
21/10/2008 04:00 15,1 C 92 % 1018,3 hPa 0,0 l/m 0,3 km/h (0 Bft) NO 0,00 h 0,025 mm 0 W/m 13,8 C 15,1 C 0,7 km/h (0 Bft)
21/10/2008 05:00 14,9 C 92 % 1017,9 hPa 0,0 l/m 0,1 km/h (0 Bft) NO 0,00 h 0,000 mm 0 W/m 13,6 C 14,9 C 0,3 km/h (0 Bft)
21/10/2008 06:00 14,6 C 92 % 1017,8 hPa 0,0 l/m 1,1 km/h (1 Bft) NO 0,00 h 0,000 mm 0 W/m 13,3 C 14,6 C 2,2 km/h (1 Bft)
21/10/2008 07:00 14,6 C 92 % 1017,6 hPa 0,0 l/m 0,9 km/h (0 Bft) NO 0,00 h 0,000 mm 5 W/m 13,3 C 14,6 C 2,1 km/h (1 Bft)
21/10/2008 08:00 14,6 C 93 % 1017,6 hPa 0,0 l/m 0,5 km/h (0 Bft) NO 0,00 h 0,000 mm 41 W/m 13,4 C 14,6 C 0,8 km/h (0 Bft)
21/10/2008 09:00 15,8 C 93 % 1017,9 hPa 0,0 l/m 0,2 km/h (0 Bft) NO 0,50 h 0,025 mm 158 W/m 14,6 C 15,8 C 0,8 km/h (0 Bft)
21/10/2008 10:00 18,3 C 79 % 1017,9 hPa 0,0 l/m 2,6 km/h (1 Bft) E 0,95 h 0,076 mm 326 W/m 14,7 C 18,3 C 3,9 km/h (1 Bft)
21/10/2008 11:00 20,1 C 72 % 1017,7 hPa 0,0 l/m 4,1 km/h (1 Bft) E 0,98 h 0,203 mm 447 W/m 14,9 C 20,1 C 6,8 km/h (2 Bft)
21/10/2008 12:00 20,6 C 71 % 1017,2 hPa 0,0 l/m 6,4 km/h (2 Bft) E 0,92 h 0,279 mm 470 W/m 15,2 C 20,6 C 9,9 km/h (2 Bft)
21/10/2008 13:00 20,3 C 74 % 1016,5 hPa 0,0 l/m 7,1 km/h (2 Bft) S 0,73 h 0,305 mm 443 W/m 15,4 C 20,3 C 11,3 km/h (2 Bft)
21/10/2008 14:00 20,4 C 73 % 1015,6 hPa 0,0 l/m 6,1 km/h (2 Bft) S-SE 0,93 h 0,279 mm 407 W/m 15,4 C 20,4 C 9,4 km/h (2 Bft)
21/10/2008 15:00 21,0 C 71 % 1015,2 hPa 0,0 l/m 5,9 km/h (2 Bft) E 0,88 h 0,254 mm 399 W/m 15,5 C 21,0 C 9,6 km/h (2 Bft)
21/10/2008 16:00 19,3 C 77 % 1015,4 hPa 0,0 l/m 3,3 km/h (1 Bft) S 0,30 h 0,254 mm 150 W/m 15,0 C 19,3 C 6,0 km/h (2 Bft)
21/10/2008 17:00 18,2 C 79 % 1015,2 hPa 0,0 l/m 2,9 km/h (1 Bft) E 0,13 h 0,102 mm 72 W/m 14,5 C 18,2 C 4,8 km/h (1 Bft)
21/10/2008 18:00 17,2 C 80 % 1015,0 hPa 0,0 l/m 1,6 km/h (1 Bft) E 0,00 h 0,051 mm 15 W/m 13,8 C 17,2 C 3,1 km/h (1 Bft)
21/10/2008 19:00 16,8 C 83 % 1015,3 hPa 0,0 l/m 2,9 km/h (1 Bft) E-NE 0,00 h 0,025 mm 0 W/m 13,8 C 16,8 C 4,9 km/h (1 Bft)
21/10/2008 20:00 16,6 C 85 % 1015,7 hPa 0,0 l/m 0,9 km/h (0 Bft) E-NE 0,00 h 0,025 mm 0 W/m 14,1 C 16,6 C 1,7 km/h (1 Bft)
21/10/2008 21:00 16,2 C 85 % 1015,7 hPa 0,0 l/m 0,2 km/h (0 Bft) E-NE 0,00 h 0,025 mm 0 W/m 13,7 C 16,2 C 0,6 km/h (0 Bft)
21/10/2008 22:00 15,7 C 87 % 1015,6 hPa 0,0 l/m 0,3 km/h (0 Bft) E-NE 0,00 h 0,025 mm 0 W/m 13,5 C 15,7 C 1,1 km/h (0 Bft)
21/10/2008 23:00 15,4 C 88 % 1015,7 hPa 0,0 l/m 1,3 km/h (1 Bft) N-NO 0,00 h 0,025 mm 0 W/m 13,4 C 15,4 C 2,2 km/h (1 Bft)
22/10/2008 00:00 15,3 C 89 % 1015,5 hPa 0,0 l/m 1,0 km/h (0 Bft) N 0,00 h 0,025 mm 0 W/m 13,5 C 15,3 C 2,2 km/h (1 Bft)
22/10/2008 01:00 15,0 C 90 % 1015,0 hPa 0,0 l/m 1,7 km/h (1 Bft) N 0,00 h 0,025 mm 0 W/m 13,4 C 15,0 C 3,1 km/h (1 Bft)
22/10/2008 02:00 15,0 C 91 % 1014,5 hPa 0,0 l/m 3,2 km/h (1 Bft) N 0,00 h 0,025 mm 0 W/m 13,5 C 15,0 C 5,1 km/h (1 Bft)
22/10/2008 03:00 14,9 C 91 % 1014,0 hPa 0,0 l/m 3,5 km/h (1 Bft) N-NE 0,00 h 0,025 mm 0 W/m 13,5 C 14,9 C 6,2 km/h (2 Bft)
22/10/2008 04:00 15,4 C 91 % 1013,7 hPa 0,0 l/m 3,4 km/h (1 Bft) N-NO 0,00 h 0,025 mm 0 W/m 14,0 C 15,4 C 6,1 km/h (2 Bft)
22/10/2008 05:00 15,7 C 90 % 1013,3 hPa 0,0 l/m 2,6 km/h (1 Bft) N 0,00 h 0,025 mm 0 W/m 14,1 C 15,7 C 4,9 km/h (1 Bft)
22/10/2008 06:00 16,2 C 88 % 1013,0 hPa 0,0 l/m 3,9 km/h (1 Bft) NE 0,00 h 0,025 mm 0 W/m 14,2 C 16,2 C 5,8 km/h (2 Bft)
22/10/2008 07:00 16,2 C 85 % 1012,9 hPa 0,0 l/m 2,9 km/h (1 Bft) E-NE 0,00 h 0,025 mm 5 W/m 13,7 C 16,2 C 4,5 km/h (1 Bft)
22/10/2008 08:00 16,5 C 82 % 1013,0 hPa 0,0 l/m 2,5 km/h (1 Bft) O 0,18 h 0,000 mm 26 W/m 13,4 C 16,5 C 3,9 km/h (1 Bft)
22/10/2008 09:00 16,9 C 80 % 1013,4 hPa 0,0 l/m 1,4 km/h (1 Bft) E-NE 0,00 h 0,025 mm 85 W/m 13,4 C 16,9 C 2,4 km/h (1 Bft)
22/10/2008 10:00 19,1 C 73 % 1013,9 hPa 0,0 l/m 5,0 km/h (1 Bft) NE 0,68 h 0,051 mm 286 W/m 14,1 C 19,1 C 7,8 km/h (2 Bft)
22/10/2008 11:00 21,3 C 65 % 1014,0 hPa 0,0 l/m 9,6 km/h (2 Bft) E-NE 0,55 h 0,178 mm 274 W/m 14,5 C 21,3 C 14,6 km/h (3 Bft)
22/10/2008 12:00 20,0 C 73 % 1014,4 hPa 0,0 l/m 10,9 km/h (2 Bft) E-NE 0,00 h 0,229 mm 185 W/m 14,9 C 20,0 C 15,5 km/h (3 Bft)
22/10/2008 13:00 19,9 C 71 % 1014,0 hPa 0,0 l/m 11,5 km/h (2 Bft) E-NE 0,00 h 0,152 mm 187 W/m 14,5 C 19,9 C 16,6 km/h (3 Bft)
22/10/2008 14:00 20,4 C 71 % 1013,5 hPa 0,0 l/m 14,6 km/h (3 Bft) E-NE 0,20 h 0,152 mm 238 W/m 14,9 C 20,4 C 20,2 km/h (4 Bft)
22/10/2008 15:00 19,3 C 74 % 1013,6 hPa 0,0 l/m 15,4 km/h (3 Bft) E-NE 0,00 h 0,203 mm 95 W/m 14,5 C 19,3 C 21,6 km/h (4 Bft)
22/10/2008 16:00 19,3 C 74 % 1013,6 hPa 0,0 l/m 9,9 km/h (2 Bft) E-NE 0,00 h 0,127 mm 104 W/m 14,6 C 19,3 C 14,6 km/h (3 Bft)
22/10/2008 17:00 19,1 C 72 % 1013,3 hPa 0,0 l/m 12,9 km/h (3 Bft) E-NE 0,00 h 0,102 mm 42 W/m 14,0 C 19,1 C 18,3 km/h (3 Bft)
22/10/2008 18:00 18,6 C 73 % 1013,5 hPa 0,0 l/m 10,5 km/h (2 Bft) E-NE 0,00 h 0,076 mm 7 W/m 13,8 C 18,6 C 15,4 km/h (3 Bft)
22/10/2008 19:00 17,3 C 81 % 1014,4 hPa 0,8 l/m 4,9 km/h (1 Bft) N-NE 0,00 h 0,051 mm 0 W/m 14,0 C 17,3 C 7,4 km/h (2 Bft)
22/10/2008 20:00 16,2 C 87 % 1014,7 hPa 0,4 l/m 3,2 km/h (1 Bft) N 0,00 h 0,025 mm 0 W/m 14,0 C 16,2 C 5,9 km/h (2 Bft)
22/10/2008 21:00 15,8 C 89 % 1014,8 hPa 0,4 l/m 1,7 km/h (1 Bft) N 0,00 h 0,025 mm 0 W/m 13,9 C 15,8 C 4,2 km/h (1 Bft)
22/10/2008 22:00 15,6 C 90 % 1015,0 hPa 0,4 l/m 2,5 km/h (1 Bft) N-NO 0,00 h 0,025 mm 0 W/m 14,1 C 15,6 C 5,0 km/h (1 Bft)
22/10/2008 23:00 15,4 C 91 % 1015,0 hPa 0,2 l/m 3,0 km/h (1 Bft) N 0,00 h 0,025 mm 0 W/m 13,9 C 15,4 C 5,4 km/h (1 Bft)
23/10/2008 00:00 15,2 C 92 % 1014,9 hPa 0,0 l/m 1,9 km/h (1 Bft) N 0,00 h 0,025 mm 0 W/m 13,9 C 15,2 C 3,8 km/h (1 Bft)
23/10/2008 01:00 15,2 C 92 % 1014,6 hPa 0,0 l/m 1,7 km/h (1 Bft) N-NE 0,00 h 0,025 mm 0 W/m 14,0 C 15,2 C 3,3 km/h (1 Bft)
23/10/2008 02:00 15,3 C 92 % 1014,5 hPa 0,0 l/m 0,7 km/h (0 Bft) N 0,00 h 0,025 mm 0 W/m 14,0 C 15,3 C 2,2 km/h (1 Bft)
23/10/2008 03:00 15,6 C 92 % 1014,5 hPa 0,0 l/m 1,3 km/h (1 Bft) N 0,00 h 0,000 mm 0 W/m 14,3 C 15,6 C 3,0 km/h (1 Bft)
23/10/2008 04:00 15,8 C 90 % 1014,4 hPa 0,0 l/m 1,7 km/h (1 Bft) N 0,00 h 0,025 mm 0 W/m 14,3 C 15,8 C 3,4 km/h (1 Bft)
23/10/2008 05:00 16,0 C 86 % 1014,6 hPa 0,0 l/m 3,3 km/h (1 Bft) N-NO 0,00 h 0,025 mm 0 W/m 13,7 C 16,0 C 5,6 km/h (1 Bft)
23/10/2008 06:00 16,7 C 78 % 1014,9 hPa 0,0 l/m 3,2 km/h (1 Bft) NO 0,00 h 0,025 mm 0 W/m 12,7 C 16,7 C 5,3 km/h (1 Bft)
23/10/2008 07:00 16,8 C 73 % 1015,1 hPa 0,0 l/m 2,9 km/h (1 Bft) N-NO 0,00 h 0,025 mm 5 W/m 12,0 C 16,8 C 5,0 km/h (1 Bft)
23/10/2008 08:00 16,8 C 72 % 1015,7 hPa 0,0 l/m 4,8 km/h (1 Bft) N-NO 0,03 h 0,025 mm 30 W/m 11,7 C 16,8 C 7,0 km/h (2 Bft)
23/10/2008 09:00 18,1 C 68 % 1016,5 hPa 0,0 l/m 1,2 km/h (1 Bft) N-NO 0,35 h 0,051 mm 149 W/m 12,0 C 18,1 C 2,5 km/h (1 Bft)
23/10/2008 10:00 20,9 C 65 % 1016,9 hPa 0,0 l/m 3,3 km/h (1 Bft) E-NE 0,95 h 0,102 mm 343 W/m 14,0 C 20,9 C 5,6 km/h (1 Bft)
23/10/2008 11:00 22,4 C 60 % 1017,2 hPa 0,0 l/m 8,1 km/h (2 Bft) E-NE 0,95 h 0,229 mm 474 W/m 14,2 C 22,4 C 11,4 km/h (2 Bft)
23/10/2008 12:00 22,8 C 57 % 1017,3 hPa 0,0 l/m 14,4 km/h (3 Bft) E-NE 0,75 h 0,330 mm 429 W/m 13,9 C 22,8 C 20,0 km/h (4 Bft)
23/10/2008 13:00 21,4 C 62 % 1017,5 hPa 0,0 l/m 19,6 km/h (3 Bft) E-NE 0,32 h 0,356 mm 293 W/m 13,9 C 21,4 C 26,3 km/h (4 Bft)
23/10/2008 14:00 21,9 C 60 % 1017,2 hPa 0,0 l/m 18,2 km/h (3 Bft) E-NE 0,83 h 0,279 mm 430 W/m 13,8 C 21,9 C 25,2 km/h (4 Bft)
23/10/2008 15:00 21,6 C 60 % 1017,1 hPa 0,0 l/m 12,5 km/h (3 Bft) E-NE 0,18 h 0,381 mm 230 W/m 13,4 C 21,6 C 18,2 km/h (3 Bft)
23/10/2008 16:00 21,6 C 59 % 1017,2 hPa 0,0 l/m 10,0 km/h (2 Bft) E-NE 0,92 h 0,229 mm 228 W/m 13,2 C 21,6 C 14,8 km/h (3 Bft)
23/10/2008 17:00 20,8 C 62 % 1017,2 hPa 0,0 l/m 11,6 km/h (2 Bft) E-NE 0,07 h 0,203 mm 80 W/m 13,3 C 20,8 C 16,9 km/h (3 Bft)
23/10/2008 18:00 19,5 C 69 % 1017,6 hPa 0,0 l/m 8,6 km/h (2 Bft) E-NE 0,00 h 0,127 mm 15 W/m 13,7 C 19,5 C 12,1 km/h (2 Bft)
23/10/2008 19:00 19,1 C 67 % 1018,2 hPa 0,0 l/m 12,3 km/h (3 Bft) NE 0,00 h 0,051 mm 0 W/m 12,9 C 19,1 C 18,1 km/h (3 Bft)
23/10/2008 20:00 18,7 C 75 % 1018,7 hPa 0,0 l/m 11,3 km/h (2 Bft) E-NE 0,00 h 0,076 mm 0 W/m 14,1 C 18,7 C 15,9 km/h (3 Bft)
23/10/2008 21:00 17,8 C 80 % 1018,9 hPa 0,0 l/m 4,2 km/h (1 Bft) E-NE 0,00 h 0,051 mm 0 W/m 14,3 C 17,8 C 6,3 km/h (2 Bft)
23/10/2008 22:00 17,9 C 76 % 1019,1 hPa 0,0 l/m 2,6 km/h (1 Bft) N 0,00 h 0,025 mm 0 W/m 13,7 C 17,9 C 4,8 km/h (1 Bft)
23/10/2008 23:00 18,0 C 73 % 1019,1 hPa 0,0 l/m 4,0 km/h (1 Bft) E-NE 0,00 h 0,025 mm 0 W/m 13,2 C 18,0 C 6,3 km/h (2 Bft)
24/10/2008 00:00 18,0 C 74 % 1019,1 hPa 0,0 l/m 2,9 km/h (1 Bft) NE 0,00 h 0,051 mm 0 W/m 13,3 C 18,0 C 4,9 km/h (1 Bft)
24/10/2008 01:00 17,7 C 75 % 1019,2 hPa 0,0 l/m 2,2 km/h (1 Bft) NE 0,00 h 0,025 mm 0 W/m 13,1 C 17,7 C 4,0 km/h (1 Bft)
24/10/2008 02:00 18,0 C 75 % 1019,0 hPa 0,0 l/m 4,4 km/h (1 Bft) S 0,00 h 0,025 mm 0 W/m 13,5 C 18,0 C 6,5 km/h (2 Bft)
24/10/2008 03:00 17,5 C 78 % 1018,6 hPa 0,0 l/m 4,6 km/h (1 Bft) O-SO 0,00 h 0,051 mm 0 W/m 13,6 C 17,5 C 7,0 km/h (2 Bft)
24/10/2008 04:00 16,8 C 82 % 1018,6 hPa 0,0 l/m 6,8 km/h (2 Bft) E-NE 0,00 h 0,025 mm 0 W/m 13,6 C 16,8 C 9,6 km/h (2 Bft)
24/10/2008 05:00 16,1 C 85 % 1018,4 hPa 0,2 l/m 2,1 km/h (1 Bft) N 0,00 h 0,025 mm 0 W/m 13,7 C 16,1 C 3,3 km/h (1 Bft)
24/10/2008 06:00 15,9 C 88 % 1018,6 hPa 0,0 l/m 5,2 km/h (1 Bft) O 0,00 h 0,025 mm 0 W/m 14,0 C 15,9 C 7,2 km/h (2 Bft)
24/10/2008 07:00 16,0 C 89 % 1018,5 hPa 0,0 l/m 7,1 km/h (2 Bft) O 0,00 h 0,025 mm 0 W/m 14,2 C 16,0 C 9,6 km/h (2 Bft)
24/10/2008 08:00 16,1 C 89 % 1018,3 hPa 0,0 l/m 12,1 km/h (2 Bft) O-NO 0,00 h 0,025 mm 12 W/m 14,3 C 16,1 C 16,2 km/h (3 Bft)
24/10/2008 09:00 16,4 C 87 % 1018,7 hPa 0,0 l/m 3,8 km/h (1 Bft) S 0,00 h 0,025 mm 66 W/m 14,2 C 16,4 C 5,4 km/h (1 Bft)
24/10/2008 10:00 17,2 C 81 % 1019,2 hPa 0,0 l/m 2,0 km/h (1 Bft) S-SE 0,00 h 0,051 mm 120 W/m 13,9 C 17,2 C 3,6 km/h (1 Bft)
24/10/2008 11:00 18,4 C 73 % 1019,8 hPa 0,0 l/m 3,0 km/h (1 Bft) O 0,00 h 0,076 mm 177 W/m 13,6 C 18,4 C 4,7 km/h (1 Bft)
24/10/2008 12:00 19,6 C 68 % 1019,8 hPa 0,0 l/m 3,4 km/h (1 Bft) S-SE 0,00 h 0,127 mm 220 W/m 13,5 C 19,6 C 5,6 km/h (1 Bft)
24/10/2008 13:00 19,8 C 69 % 1019,7 hPa 0,0 l/m 5,6 km/h (1 Bft) E 0,00 h 0,152 mm 214 W/m 14,0 C 19,8 C 9,5 km/h (2 Bft)
24/10/2008 14:00 18,7 C 78 % 1019,4 hPa 0,0 l/m 9,4 km/h (2 Bft) E 0,00 h 0,152 mm 186 W/m 14,7 C 18,7 C 15,6 km/h (3 Bft)
24/10/2008 15:00 18,8 C 78 % 1019,1 hPa 0,0 l/m 4,1 km/h (1 Bft) E 0,00 h 0,152 mm 146 W/m 14,9 C 18,8 C 7,6 km/h (2 Bft)
24/10/2008 16:00 18,3 C 81 % 1019,2 hPa 0,0 l/m 3,8 km/h (1 Bft) E 0,00 h 0,102 mm 104 W/m 14,9 C 18,3 C 7,5 km/h (2 Bft)
24/10/2008 17:00 17,5 C 85 % 1019,3 hPa 0,0 l/m 4,7 km/h (1 Bft) S 0,00 h 0,076 mm 49 W/m 14,9 C 17,5 C 7,5 km/h (2 Bft)
24/10/2008 18:00 16,8 C 88 % 1019,6 hPa 0,0 l/m 3,1 km/h (1 Bft) S-SE 0,00 h 0,051 mm 16 W/m 14,9 C 16,8 C 4,5 km/h (1 Bft)
24/10/2008 19:00 16,4 C 90 % 1020,2 hPa 0,0 l/m 2,8 km/h (1 Bft) S-SE 0,00 h 0,025 mm 0 W/m 14,6 C 16,4 C 4,1 km/h (1 Bft)
24/10/2008 20:00 16,3 C 91 % 1020,9 hPa 0,0 l/m 4,1 km/h (1 Bft) O-NO 0,00 h 0,025 mm 0 W/m 14,7 C 16,3 C 5,9 km/h (2 Bft)
24/10/2008 21:00 15,9 C 91 % 1021,0 hPa 0,0 l/m 4,3 km/h (1 Bft) O 0,00 h 0,025 mm 0 W/m 14,5 C 15,9 C 5,8 km/h (2 Bft)
24/10/2008 22:00 15,7 C 92 % 1021,3 hPa 0,0 l/m 1,6 km/h (1 Bft) O-NO 0,00 h 0,025 mm 0 W/m 14,4 C 15,7 C 2,4 km/h (1 Bft)
24/10/2008 23:00 15,6 C 92 % 1021,5 hPa 0,0 l/m 1,1 km/h (0 Bft) O-NO 0,00 h 0,025 mm 0 W/m 14,3 C 15,6 C 1,6 km/h (1 Bft)
25/10/2008 00:00 15,5 C 93 % 1021,8 hPa 0,4 l/m 0,1 km/h (0 Bft) O-NO 0,00 h 0,025 mm 0 W/m 14,4 C 15,5 C 0,2 km/h (0 Bft)
25/10/2008 01:00 15,3 C 93 % 1021,8 hPa 0,0 l/m 2,2 km/h (1 Bft) NO 0,00 h 0,000 mm 0 W/m 14,1 C 15,3 C 3,2 km/h (1 Bft)
25/10/2008 02:00 15,1 C 93 % 1021,5 hPa 0,0 l/m 1,9 km/h (1 Bft) N-NO 0,00 h 0,025 mm 0 W/m 14,0 C 15,1 C 3,0 km/h (1 Bft)
25/10/2008 03:00 14,8 C 94 % 1021,4 hPa 0,0 l/m 1,9 km/h (1 Bft) N-NO 0,00 h 0,000 mm 0 W/m 13,8 C 14,8 C 2,9 km/h (1 Bft)
25/10/2008 04:00 14,6 C 94 % 1021,4 hPa 0,2 l/m 3,1 km/h (1 Bft) O 0,00 h 0,000 mm 0 W/m 13,7 C 14,6 C 4,2 km/h (1 Bft)
25/10/2008 05:00 14,0 C 95 % 1021,7 hPa 0,0 l/m 4,7 km/h (1 Bft) O-NO 0,00 h 0,000 mm 0 W/m 13,2 C 14,0 C 6,2 km/h (2 Bft)
25/10/2008 06:00 13,7 C 95 % 1021,7 hPa 0,0 l/m 6,2 km/h (2 Bft) O 0,00 h 0,025 mm 0 W/m 12,9 C 13,7 C 8,3 km/h (2 Bft)
25/10/2008 07:00 13,6 C 95 % 1021,7 hPa 0,0 l/m 2,1 km/h (1 Bft) NO 0,00 h 0,025 mm 5 W/m 12,8 C 13,6 C 3,2 km/h (1 Bft)
25/10/2008 08:00 14,0 C 95 % 1022,3 hPa 0,0 l/m 3,9 km/h (1 Bft) NO 0,13 h 0,000 mm 36 W/m 13,2 C 14,0 C 5,0 km/h (1 Bft)
25/10/2008 09:00 15,7 C 88 % 1023,1 hPa 0,0 l/m 2,6 km/h (1 Bft) O-NO 0,42 h 0,025 mm 109 W/m 13,6 C 15,7 C 4,5 km/h (1 Bft)
25/10/2008 10:00 17,7 C 77 % 1023,6 hPa 0,0 l/m 0,3 km/h (0 Bft) O-NO 0,53 h 0,076 mm 221 W/m 13,6 C 17,7 C 0,7 km/h (0 Bft)
25/10/2008 11:00 19,7 C 72 % 1023,5 hPa 0,0 l/m 0,8 km/h (0 Bft) O-NO 0,05 h 0,127 mm 220 W/m 14,4 C 19,7 C 2,0 km/h (1 Bft)
25/10/2008 12:00 21,1 C 64 % 1023,5 hPa 0,0 l/m 2,7 km/h (1 Bft) O-NO 0,97 h 0,127 mm 407 W/m 13,9 C 21,1 C 4,9 km/h (1 Bft)
25/10/2008 13:00 23,1 C 59 % 1023,1 hPa 0,0 l/m 5,1 km/h (1 Bft) E 0,97 h 0,254 mm 481 W/m 14,5 C 23,1 C 7,9 km/h (2 Bft)
25/10/2008 14:00 22,9 C 53 % 1022,9 hPa 0,0 l/m 10,3 km/h (2 Bft) S-SE 0,85 h 0,330 mm 424 W/m 12,9 C 22,9 C 14,5 km/h (3 Bft)
25/10/2008 15:00 21,6 C 57 % 1023,0 hPa 0,0 l/m 7,0 km/h (2 Bft) S-SE 0,60 h 0,330 mm 290 W/m 12,8 C 21,6 C 10,7 km/h (2 Bft)
25/10/2008 16:00 21,5 C 59 % 1023,2 hPa 0,0 l/m 3,7 km/h (1 Bft) E 0,35 h 0,229 mm 172 W/m 13,1 C 21,5 C 6,6 km/h (2 Bft)
25/10/2008 17:00 20,6 C 61 % 1023,5 hPa 0,0 l/m 1,0 km/h (0 Bft) E-NE 0,00 h 0,127 mm 59 W/m 12,9 C 20,6 C 2,0 km/h (1 Bft)
25/10/2008 18:00 19,2 C 65 % 1023,7 hPa 0,0 l/m 1,7 km/h (1 Bft) N 0,00 h 0,051 mm 12 W/m 12,3 C 19,2 C 3,1 km/h (1 Bft)
25/10/2008 19:00 18,7 C 66 % 1024,1 hPa 0,0 l/m 5,5 km/h (1 Bft) O 0,00 h 0,025 mm 0 W/m 12,2 C 18,7 C 7,3 km/h (2 Bft)
25/10/2008 20:00 17,8 C 67 % 1024,3 hPa 0,0 l/m 3,1 km/h (1 Bft) O-NO 0,00 h 0,051 mm 0 W/m 11,6 C 17,8 C 5,3 km/h (1 Bft)
25/10/2008 21:00 17,3 C 69 % 1024,6 hPa 0,0 l/m 3,5 km/h (1 Bft) O-NO 0,00 h 0,051 mm 0 W/m 11,5 C 17,3 C 5,4 km/h (1 Bft)
25/10/2008 22:00 16,4 C 72 % 1024,7 hPa 0,0 l/m 4,7 km/h (1 Bft) O 0,00 h 0,051 mm 0 W/m 11,3 C 16,4 C 7,1 km/h (2 Bft)
25/10/2008 23:00 16,3 C 73 % 1024,8 hPa 0,0 l/m 8,0 km/h (2 Bft) O-NO 0,00 h 0,051 mm 0 W/m 11,4 C 16,3 C 10,8 km/h (2 Bft)
26/10/2008 00:00 16,1 C 73 % 1024,7 hPa 0,0 l/m 6,5 km/h (2 Bft) O-NO 0,00 h 0,051 mm 0 W/m 11,3 C 16,1 C 9,1 km/h (2 Bft)
26/10/2008 01:00 16,0 C 73 % 1024,6 hPa 0,0 l/m 4,2 km/h (1 Bft) O-NO 0,00 h 0,051 mm 0 W/m 11,1 C 16,0 C 6,7 km/h (2 Bft)
26/10/2008 02:00 15,8 C 73 % 1024,3 hPa 0,0 l/m 4,3 km/h (1 Bft) O-NO 0,00 h 0,025 mm 0 W/m 11,1 C 15,8 C 6,0 km/h (2 Bft)
26/10/2008 03:00 15,3 C 74 % 1023,8 hPa 0,0 l/m 3,9 km/h (1 Bft) O-NO 0,00 h 0,051 mm 0 W/m 10,7 C 15,3 C 6,4 km/h (2 Bft)
26/10/2008 04:00 15,2 C 75 % 1023,2 hPa 0,0 l/m 5,0 km/h (1 Bft) O-NO 0,00 h 0,025 mm 0 W/m 10,7 C 15,2 C 8,1 km/h (2 Bft)
26/10/2008 05:00 15,2 C 74 % 1023,1 hPa 0,0 l/m 3,5 km/h (1 Bft) NO 0,00 h 0,025 mm 0 W/m 10,5 C 15,2 C 5,7 km/h (1 Bft)
26/10/2008 06:00 14,7 C 75 % 1023,1 hPa 0,0 l/m 4,5 km/h (1 Bft) N-NO 0,00 h 0,025 mm 5 W/m 10,2 C 14,7 C 6,4 km/h (2 Bft)
26/10/2008 07:00 15,3 C 74 % 1023,2 hPa 0,0 l/m 3,1 km/h (1 Bft) NO 0,47 h 0,025 mm 45 W/m 10,7 C 15,3 C 4,6 km/h (1 Bft)
26/10/2008 08:00 17,5 C 66 % 1023,7 hPa 0,0 l/m 0,4 km/h (0 Bft) NO 1,00 h 0,051 mm 176 W/m 11,0 C 17,5 C 1,1 km/h (1 Bft)
26/10/2008 09:00 19,7 C 61 % 1023,7 hPa 0,0 l/m 1,7 km/h (1 Bft) E-SE 1,00 h 0,102 mm 311 W/m 12,0 C 19,7 C 3,3 km/h (1 Bft)
26/10/2008 10:00 21,8 C 58 % 1023,5 hPa 0,0 l/m 4,2 km/h (1 Bft) E 1,00 h 0,203 mm 418 W/m 13,0 C 21,8 C 7,2 km/h (2 Bft)
26/10/2008 11:00 21,8 C 60 % 1023,4 hPa 0,0 l/m 7,3 km/h (2 Bft) S 1,00 h 0,279 mm 480 W/m 13,7 C 21,8 C 11,4 km/h (2 Bft)
26/10/2008 12:00 22,4 C 62 % 1022,5 hPa 0,0 l/m 6,7 km/h (2 Bft) S 1,00 h 0,330 mm 495 W/m 14,7 C 22,4 C 10,9 km/h (2 Bft)
26/10/2008 13:00 22,4 C 63 % 1021,6 hPa 0,0 l/m 5,6 km/h (1 Bft) E 1,00 h 0,330 mm 453 W/m 15,2 C 22,4 C 10,0 km/h (2 Bft)
26/10/2008 14:00 21,8 C 68 % 1021,1 hPa 0,0 l/m 7,5 km/h (2 Bft) E 1,00 h 0,305 mm 362 W/m 15,6 C 21,8 C 11,3 km/h (2 Bft)
26/10/2008 15:00 20,7 C 72 % 1020,8 hPa 0,0 l/m 5,0 km/h (1 Bft) E 1,00 h 0,254 mm 232 W/m 15,5 C 20,7 C 7,1 km/h (2 Bft)
26/10/2008 16:00 19,3 C 77 % 1020,4 hPa 0,0 l/m 3,6 km/h (1 Bft) E 0,73 h 0,152 mm 96 W/m 15,1 C 19,3 C 5,6 km/h (1 Bft)
26/10/2008 17:00 17,5 C 80 % 1020,3 hPa 0,0 l/m 0,3 km/h (0 Bft) E 0,03 h 0,076 mm 16 W/m 14,1 C 17,5 C 0,8 km/h (0 Bft)
26/10/2008 18:00 16,4 C 84 % 1020,5 hPa 0,0 l/m 0,7 km/h (0 Bft) E 0,00 h 0,000 mm 0 W/m 13,6 C 16,4 C 1,2 km/h (1 Bft)
26/10/2008 19:00 15,8 C 87 % 1020,2 hPa 0,0 l/m 1,9 km/h (1 Bft) E 0,00 h 0,025 mm 0 W/m 13,7 C 15,8 C 2,9 km/h (1 Bft)
26/10/2008 20:00 15,1 C 89 % 1019,9 hPa 0,0 l/m 2,7 km/h (1 Bft) E 0,00 h 0,025 mm 0 W/m 13,4 C 15,1 C 4,4 km/h (1 Bft)
26/10/2008 21:00 14,5 C 90 % 1019,7 hPa 0,0 l/m 2,4 km/h (1 Bft) NO 0,00 h 0,025 mm 0 W/m 12,9 C 14,5 C 3,9 km/h (1 Bft)
26/10/2008 22:00 14,6 C 91 % 1019,4 hPa 0,0 l/m 2,2 km/h (1 Bft) NO 0,00 h 0,025 mm 0 W/m 13,1 C 14,6 C 3,6 km/h (1 Bft)
26/10/2008 23:00 14,2 C 91 % 1018,8 hPa 0,0 l/m 3,5 km/h (1 Bft) NO 0,00 h 0,025 mm 0 W/m 12,8 C 14,2 C 4,6 km/h (1 Bft)
Min-Date _ 25/10/08 25/10/08 22/10/08 - 20/10/08 - - - - 26/10/08 25/10/08 20/10/08
_ Min-Heure 07:08 14:23 06:45 - 00:00 - - - - 06:00 07:08 00:00
Minimum _ 13,3 C 49 % 1012,9 hPa - 0,0 km/h (0 Bft) - - - - 9,9 C 13,3 C 0,0 km/h (0 Bft)
Max-Date _ 25/10/08 20/10/08 25/10/08 22/10/08 23/10/08 - 20/10/08 23/10/08 20/10/08 21/10/08 25/10/08 23/10/08
_ Max-Heure 13:52 08:25 23:00 19:01 13:58 - 10:24 15:00 12:16 13:05 13:52 14:07
Maximum _ 24,1 C 95 % 1024,9 hPa 0,8 l/m 29,0 km/h
E-NE (5 Bft)
- 0,02 h 0,381 mm 700 W/m 16,3 C 24,1 C 38,6 km/h
E-NE (5 Bft)
Moyenne _ 17,4 C 80 % 1019,1 hPa #3,2 l/m 4,1 km/h (1 Bft) E-NE #29:39 h #13,664 mm 193 W/m 13,7 C 17,4 C 6,3 km/h (2 Bft)
Roquefort les pins